sensor_id;sensor_type;location;lat;lon;timestamp;P1;durP1;ratioP1;P2;durP2;ratioP2
66421;SDS011;53228;51.380;0.098;2023-08-21T00:01:31;8.45;;;1.67;;
66421;SDS011;53228;51.380;0.098;2023-08-21T00:03:58;3.13;;;1.40;;
66421;SDS011;53228;51.380;0.098;2023-08-21T00:06:26;4.40;;;1.40;;
66421;SDS011;53228;51.380;0.098;2023-08-21T00:08:54;1.98;;;1.50;;
66421;SDS011;53228;51.380;0.098;2023-08-21T00:11:22;5.95;;;1.90;;
66421;SDS011;53228;51.380;0.098;2023-08-21T00:13:49;6.78;;;1.70;;
66421;SDS011;53228;51.380;0.098;2023-08-21T00:16:17;8.02;;;1.55;;
66421;SDS011;53228;51.380;0.098;2023-08-21T00:18:45;10.63;;;2.72;;
66421;SDS011;53228;51.380;0.098;2023-08-21T00:21:13;3.28;;;1.50;;
66421;SDS011;53228;51.380;0.098;2023-08-21T00:23:40;7.25;;;1.70;;
66421;SDS011;53228;51.380;0.098;2023-08-21T00:26:08;5.28;;;1.55;;
66421;SDS011;53228;51.380;0.098;2023-08-21T00:28:35;8.40;;;2.30;;
66421;SDS011;53228;51.380;0.098;2023-08-21T00:31:03;4.05;;;1.35;;
66421;SDS011;53228;51.380;0.098;2023-08-21T00:33:32;8.00;;;1.60;;
66421;SDS011;53228;51.380;0.098;2023-08-21T00:36:00;9.73;;;2.10;;
66421;SDS011;53228;51.380;0.098;2023-08-21T00:38:28;5.65;;;1.70;;
66421;SDS011;53228;51.380;0.098;2023-08-21T00:40:55;5.93;;;1.65;;
66421;SDS011;53228;51.380;0.098;2023-08-21T00:43:24;5.93;;;2.33;;
66421;SDS011;53228;51.380;0.098;2023-08-21T00:45:52;9.73;;;1.88;;
66421;SDS011;53228;51.380;0.098;2023-08-21T00:48:20;5.95;;;1.77;;
66421;SDS011;53228;51.380;0.098;2023-08-21T00:50:48;5.90;;;1.70;;
66421;SDS011;53228;51.380;0.098;2023-08-21T00:53:16;5.90;;;1.80;;
66421;SDS011;53228;51.380;0.098;2023-08-21T00:55:44;7.18;;;2.10;;
66421;SDS011;53228;51.380;0.098;2023-08-21T00:58:12;4.50;;;1.48;;
66421;SDS011;53228;51.380;0.098;2023-08-21T01:00:44;6.50;;;1.73;;
66421;SDS011;53228;51.380;0.098;2023-08-21T01:03:14;3.83;;;1.80;;
66421;SDS011;53228;51.380;0.098;2023-08-21T01:05:42;10.25;;;1.73;;
66421;SDS011;53228;51.380;0.098;2023-08-21T01:11:05;3.45;;;1.52;;
66421;SDS011;53228;51.380;0.098;2023-08-21T01:16:21;5.43;;;1.38;;
66421;SDS011;53228;51.380;0.098;2023-08-21T01:18:50;9.85;;;1.67;;
66421;SDS011;53228;51.380;0.098;2023-08-21T01:21:20;4.45;;;1.67;;
66421;SDS011;53228;51.380;0.098;2023-08-21T01:23:48;10.15;;;2.00;;
66421;SDS011;53228;51.380;0.098;2023-08-21T01:26:15;5.15;;;1.80;;
66421;SDS011;53228;51.380;0.098;2023-08-21T01:28:43;7.50;;;1.70;;
66421;SDS011;53228;51.380;0.098;2023-08-21T01:31:13;3.22;;;1.60;;
66421;SDS011;53228;51.380;0.098;2023-08-21T01:33:59;6.13;;;2.10;;
66421;SDS011;53228;51.380;0.098;2023-08-21T01:36:30;6.95;;;2.25;;
66421;SDS011;53228;51.380;0.098;2023-08-21T01:38:58;6.78;;;1.83;;
66421;SDS011;53228;51.380;0.098;2023-08-21T01:41:26;8.68;;;2.30;;
66421;SDS011;53228;51.380;0.098;2023-08-21T01:43:54;6.65;;;1.77;;
66421;SDS011;53228;51.380;0.098;2023-08-21T01:46:22;11.10;;;2.50;;
66421;SDS011;53228;51.380;0.098;2023-08-21T01:48:50;10.05;;;2.13;;
66421;SDS011;53228;51.380;0.098;2023-08-21T01:51:17;7.72;;;2.15;;
66421;SDS011;53228;51.380;0.098;2023-08-21T01:53:45;8.98;;;2.10;;
66421;SDS011;53228;51.380;0.098;2023-08-21T01:56:12;7.63;;;1.80;;
66421;SDS011;53228;51.380;0.098;2023-08-21T01:58:40;14.50;;;2.33;;
66421;SDS011;53228;51.380;0.098;2023-08-21T02:01:08;4.78;;;1.70;;
66421;SDS011;53228;51.380;0.098;2023-08-21T02:03:35;4.13;;;1.60;;
66421;SDS011;53228;51.380;0.098;2023-08-21T02:06:03;4.10;;;1.92;;
66421;SDS011;53228;51.380;0.098;2023-08-21T02:08:33;8.52;;;2.25;;
66421;SDS011;53228;51.380;0.098;2023-08-21T02:11:01;4.35;;;1.80;;
66421;SDS011;53228;51.380;0.098;2023-08-21T02:13:28;4.80;;;2.00;;
66421;SDS011;53228;51.380;0.098;2023-08-21T02:15:56;5.05;;;1.65;;
66421;SDS011;53228;51.380;0.098;2023-08-21T02:18:24;7.65;;;2.20;;
66421;SDS011;53228;51.380;0.098;2023-08-21T02:20:52;4.45;;;1.90;;
66421;SDS011;53228;51.380;0.098;2023-08-21T02:23:19;4.53;;;2.25;;
66421;SDS011;53228;51.380;0.098;2023-08-21T02:25:47;7.63;;;1.98;;
66421;SDS011;53228;51.380;0.098;2023-08-21T02:28:16;7.05;;;2.05;;
66421;SDS011;53228;51.380;0.098;2023-08-21T02:30:44;7.13;;;2.70;;
66421;SDS011;53228;51.380;0.098;2023-08-21T02:33:12;9.55;;;1.98;;
66421;SDS011;53228;51.380;0.098;2023-08-21T02:35:40;6.22;;;1.83;;
66421;SDS011;53228;51.380;0.098;2023-08-21T02:38:08;4.80;;;1.83;;
66421;SDS011;53228;51.380;0.098;2023-08-21T02:40:36;5.65;;;2.00;;
66421;SDS011;53228;51.380;0.098;2023-08-21T02:43:04;9.35;;;2.10;;
66421;SDS011;53228;51.380;0.098;2023-08-21T02:45:32;12.73;;;2.40;;
66421;SDS011;53228;51.380;0.098;2023-08-21T02:47:59;3.25;;;1.83;;
66421;SDS011;53228;51.380;0.098;2023-08-21T02:50:27;9.88;;;2.45;;
66421;SDS011;53228;51.380;0.098;2023-08-21T02:52:54;10.15;;;2.03;;
66421;SDS011;53228;51.380;0.098;2023-08-21T02:55:23;8.80;;;2.30;;
66421;SDS011;53228;51.380;0.098;2023-08-21T02:57:50;5.97;;;2.10;;
66421;SDS011;53228;51.380;0.098;2023-08-21T03:00:18;7.68;;;2.30;;
66421;SDS011;53228;51.380;0.098;2023-08-21T03:02:46;6.22;;;2.38;;
66421;SDS011;53228;51.380;0.098;2023-08-21T03:05:14;11.25;;;2.33;;
66421;SDS011;53228;51.380;0.098;2023-08-21T03:07:42;8.60;;;2.65;;
66421;SDS011;53228;51.380;0.098;2023-08-21T03:10:09;7.28;;;2.35;;
66421;SDS011;53228;51.380;0.098;2023-08-21T03:12:39;10.55;;;2.65;;
66421;SDS011;53228;51.380;0.098;2023-08-21T03:15:08;9.07;;;2.30;;
66421;SDS011;53228;51.380;0.098;2023-08-21T03:17:36;7.25;;;2.35;;
66421;SDS011;53228;51.380;0.098;2023-08-21T03:20:04;4.05;;;2.13;;
66421;SDS011;53228;51.380;0.098;2023-08-21T03:22:32;7.78;;;2.63;;
66421;SDS011;53228;51.380;0.098;2023-08-21T03:24:59;8.85;;;2.63;;
66421;SDS011;53228;51.380;0.098;2023-08-21T03:27:28;6.85;;;2.95;;
66421;SDS011;53228;51.380;0.098;2023-08-21T03:29:57;9.60;;;2.70;;
66421;SDS011;53228;51.380;0.098;2023-08-21T03:32:28;10.57;;;3.08;;
66421;SDS011;53228;51.380;0.098;2023-08-21T03:34:56;15.27;;;2.85;;
66421;SDS011;53228;51.380;0.098;2023-08-21T03:37:24;11.30;;;2.97;;
66421;SDS011;53228;51.380;0.098;2023-08-21T03:39:52;12.93;;;3.08;;
66421;SDS011;53228;51.380;0.098;2023-08-21T03:42:20;11.93;;;2.78;;
66421;SDS011;53228;51.380;0.098;2023-08-21T03:44:47;16.25;;;3.03;;
66421;SDS011;53228;51.380;0.098;2023-08-21T03:47:17;17.27;;;3.88;;
66421;SDS011;53228;51.380;0.098;2023-08-21T03:49:53;12.82;;;3.13;;
66421;SDS011;53228;51.380;0.098;2023-08-21T03:52:23;7.60;;;2.58;;
66421;SDS011;53228;51.380;0.098;2023-08-21T03:54:50;10.77;;;3.10;;
66421;SDS011;53228;51.380;0.098;2023-08-21T03:57:18;9.43;;;2.88;;
66421;SDS011;53228;51.380;0.098;2023-08-21T03:59:47;10.75;;;2.42;;
66421;SDS011;53228;51.380;0.098;2023-08-21T04:02:15;9.82;;;2.95;;
66421;SDS011;53228;51.380;0.098;2023-08-21T04:04:42;8.65;;;2.72;;
66421;SDS011;53228;51.380;0.098;2023-08-21T04:07:10;10.98;;;2.90;;
66421;SDS011;53228;51.380;0.098;2023-08-21T04:09:39;9.07;;;2.88;;
66421;SDS011;53228;51.380;0.098;2023-08-21T04:12:07;8.50;;;3.15;;
66421;SDS011;53228;51.380;0.098;2023-08-21T04:14:35;13.82;;;3.05;;
66421;SDS011;53228;51.380;0.098;2023-08-21T04:17:02;12.30;;;2.95;;
66421;SDS011;53228;51.380;0.098;2023-08-21T04:19:30;8.15;;;3.10;;
66421;SDS011;53228;51.380;0.098;2023-08-21T04:22:01;4.10;;;2.65;;
66421;SDS011;53228;51.380;0.098;2023-08-21T04:24:29;10.93;;;3.40;;
66421;SDS011;53228;51.380;0.098;2023-08-21T04:26:57;6.70;;;3.03;;
66421;SDS011;53228;51.380;0.098;2023-08-21T04:29:25;12.45;;;3.30;;
66421;SDS011;53228;51.380;0.098;2023-08-21T04:31:53;11.15;;;4.35;;
66421;SDS011;53228;51.380;0.098;2023-08-21T04:34:20;6.07;;;2.53;;
66421;SDS011;53228;51.380;0.098;2023-08-21T04:36:48;7.55;;;2.65;;
66421;SDS011;53228;51.380;0.098;2023-08-21T04:39:17;7.85;;;3.22;;
66421;SDS011;53228;51.380;0.098;2023-08-21T04:41:45;12.40;;;3.00;;
66421;SDS011;53228;51.380;0.098;2023-08-21T04:44:15;14.52;;;3.42;;
66421;SDS011;53228;51.380;0.098;2023-08-21T04:46:43;6.60;;;2.60;;
66421;SDS011;53228;51.380;0.098;2023-08-21T04:49:15;9.02;;;2.88;;
66421;SDS011;53228;51.380;0.098;2023-08-21T04:51:42;7.30;;;2.55;;
66421;SDS011;53228;51.380;0.098;2023-08-21T04:54:10;11.50;;;3.15;;
66421;SDS011;53228;51.380;0.098;2023-08-21T04:56:38;13.75;;;3.00;;
66421;SDS011;53228;51.380;0.098;2023-08-21T04:59:09;6.32;;;3.08;;
66421;SDS011;53228;51.380;0.098;2023-08-21T05:01:37;6.22;;;2.90;;
66421;SDS011;53228;51.380;0.098;2023-08-21T05:04:06;9.25;;;2.83;;
66421;SDS011;53228;51.380;0.098;2023-08-21T05:06:34;15.57;;;2.88;;
66421;SDS011;53228;51.380;0.098;2023-08-21T05:09:02;10.93;;;3.08;;
66421;SDS011;53228;51.380;0.098;2023-08-21T05:11:29;11.55;;;3.05;;
66421;SDS011;53228;51.380;0.098;2023-08-21T05:13:57;8.57;;;2.40;;
66421;SDS011;53228;51.380;0.098;2023-08-21T05:16:28;10.57;;;2.47;;
66421;SDS011;53228;51.380;0.098;2023-08-21T05:18:56;11.10;;;2.90;;
66421;SDS011;53228;51.380;0.098;2023-08-21T05:21:24;12.32;;;3.63;;
66421;SDS011;53228;51.380;0.098;2023-08-21T05:23:52;9.90;;;3.60;;
66421;SDS011;53228;51.380;0.098;2023-08-21T05:26:19;9.32;;;2.90;;
66421;SDS011;53228;51.380;0.098;2023-08-21T05:28:47;9.48;;;3.08;;
66421;SDS011;53228;51.380;0.098;2023-08-21T05:31:15;9.55;;;2.50;;
66421;SDS011;53228;51.380;0.098;2023-08-21T05:33:49;9.45;;;2.75;;
66421;SDS011;53228;51.380;0.098;2023-08-21T05:36:16;11.98;;;2.50;;
66421;SDS011;53228;51.380;0.098;2023-08-21T05:38:44;5.30;;;3.00;;
66421;SDS011;53228;51.380;0.098;2023-08-21T05:41:12;14.48;;;2.95;;
66421;SDS011;53228;51.380;0.098;2023-08-21T05:43:40;9.50;;;3.60;;
66421;SDS011;53228;51.380;0.098;2023-08-21T05:46:10;4.90;;;2.50;;
66421;SDS011;53228;51.380;0.098;2023-08-21T05:48:38;10.05;;;2.47;;
66421;SDS011;53228;51.380;0.098;2023-08-21T05:51:06;10.50;;;3.15;;
66421;SDS011;53228;51.380;0.098;2023-08-21T05:53:33;13.25;;;3.60;;
66421;SDS011;53228;51.380;0.098;2023-08-21T05:56:02;14.00;;;3.60;;
66421;SDS011;53228;51.380;0.098;2023-08-21T05:58:30;12.30;;;3.20;;
66421;SDS011;53228;51.380;0.098;2023-08-21T06:00:59;9.32;;;2.97;;
66421;SDS011;53228;51.380;0.098;2023-08-21T06:03:29;7.55;;;2.97;;
66421;SDS011;53228;51.380;0.098;2023-08-21T06:06:08;7.45;;;2.20;;
66421;SDS011;53228;51.380;0.098;2023-08-21T06:08:36;10.35;;;2.60;;
66421;SDS011;53228;51.380;0.098;2023-08-21T06:11:04;7.10;;;2.15;;
66421;SDS011;53228;51.380;0.098;2023-08-21T06:13:32;9.77;;;1.95;;
66421;SDS011;53228;51.380;0.098;2023-08-21T06:16:00;11.07;;;3.03;;
66421;SDS011;53228;51.380;0.098;2023-08-21T06:18:29;6.20;;;1.90;;
66421;SDS011;53228;51.380;0.098;2023-08-21T06:20:57;5.38;;;1.50;;
66421;SDS011;53228;51.380;0.098;2023-08-21T06:23:25;8.70;;;1.67;;
66421;SDS011;53228;51.380;0.098;2023-08-21T06:25:53;4.55;;;1.63;;
66421;SDS011;53228;51.380;0.098;2023-08-21T06:28:22;4.32;;;1.80;;
66421;SDS011;53228;51.380;0.098;2023-08-21T06:30:56;7.35;;;1.85;;
66421;SDS011;53228;51.380;0.098;2023-08-21T06:33:33;5.68;;;1.73;;
66421;SDS011;53228;51.380;0.098;2023-08-21T06:36:01;5.40;;;2.20;;
66421;SDS011;53228;51.380;0.098;2023-08-21T06:38:29;2.75;;;1.50;;
66421;SDS011;53228;51.380;0.098;2023-08-21T06:40:56;7.57;;;1.77;;
66421;SDS011;53228;51.380;0.098;2023-08-21T06:43:24;5.35;;;1.23;;
66421;SDS011;53228;51.380;0.098;2023-08-21T06:45:56;7.00;;;1.60;;
66421;SDS011;53228;51.380;0.098;2023-08-21T06:48:24;6.32;;;1.35;;
66421;SDS011;53228;51.380;0.098;2023-08-21T06:50:52;1.88;;;1.08;;
66421;SDS011;53228;51.380;0.098;2023-08-21T06:53:20;6.75;;;1.70;;
66421;SDS011;53228;51.380;0.098;2023-08-21T06:55:48;5.68;;;1.40;;
66421;SDS011;53228;51.380;0.098;2023-08-21T06:58:16;3.33;;;1.20;;
66421;SDS011;53228;51.380;0.098;2023-08-21T07:00:43;5.88;;;1.70;;
66421;SDS011;53228;51.380;0.098;2023-08-21T07:03:11;7.03;;;1.42;;
66421;SDS011;53228;51.380;0.098;2023-08-21T07:05:39;4.57;;;1.50;;
66421;SDS011;53228;51.380;0.098;2023-08-21T07:08:07;3.75;;;1.38;;
66421;SDS011;53228;51.380;0.098;2023-08-21T07:10:36;5.38;;;1.25;;
66421;SDS011;53228;51.380;0.098;2023-08-21T07:13:04;6.53;;;2.00;;
66421;SDS011;53228;51.380;0.098;2023-08-21T07:15:32;7.95;;;2.25;;
66421;SDS011;53228;51.380;0.098;2023-08-21T07:17:59;4.47;;;1.70;;
66421;SDS011;53228;51.380;0.098;2023-08-21T07:20:27;5.38;;;1.60;;
66421;SDS011;53228;51.380;0.098;2023-08-21T07:22:55;6.40;;;1.75;;
66421;SDS011;53228;51.380;0.098;2023-08-21T07:25:23;8.52;;;1.50;;
66421;SDS011;53228;51.380;0.098;2023-08-21T07:27:54;3.88;;;1.80;;
66421;SDS011;53228;51.380;0.098;2023-08-21T07:30:23;2.92;;;1.48;;
66421;SDS011;53228;51.380;0.098;2023-08-21T07:32:52;4.35;;;1.60;;
66421;SDS011;53228;51.380;0.098;2023-08-21T07:37:48;4.78;;;1.73;;
66421;SDS011;53228;51.380;0.098;2023-08-21T07:40:16;3.75;;;1.60;;
66421;SDS011;53228;51.380;0.098;2023-08-21T07:42:44;5.57;;;2.25;;
66421;SDS011;53228;51.380;0.098;2023-08-21T07:45:12;6.22;;;2.00;;
66421;SDS011;53228;51.380;0.098;2023-08-21T07:47:39;7.30;;;1.80;;
66421;SDS011;53228;51.380;0.098;2023-08-21T07:50:08;8.88;;;1.80;;
66421;SDS011;53228;51.380;0.098;2023-08-21T07:52:36;5.28;;;1.70;;
66421;SDS011;53228;51.380;0.098;2023-08-21T07:55:04;6.45;;;2.72;;
66421;SDS011;53228;51.380;0.098;2023-08-21T07:57:32;3.78;;;2.10;;
66421;SDS011;53228;51.380;0.098;2023-08-21T08:00:00;5.53;;;2.17;;
66421;SDS011;53228;51.380;0.098;2023-08-21T08:02:39;6.63;;;2.13;;
66421;SDS011;53228;51.380;0.098;2023-08-21T08:05:07;6.30;;;2.17;;
66421;SDS011;53228;51.380;0.098;2023-08-21T08:07:36;6.50;;;2.40;;
66421;SDS011;53228;51.380;0.098;2023-08-21T08:10:03;6.38;;;2.28;;
66421;SDS011;53228;51.380;0.098;2023-08-21T08:12:32;6.90;;;2.75;;
66421;SDS011;53228;51.380;0.098;2023-08-21T08:15:00;7.25;;;2.42;;
66421;SDS011;53228;51.380;0.098;2023-08-21T08:17:29;10.35;;;2.30;;
66421;SDS011;53228;51.380;0.098;2023-08-21T08:19:57;7.65;;;2.42;;
66421;SDS011;53228;51.380;0.098;2023-08-21T08:22:25;6.15;;;2.10;;
66421;SDS011;53228;51.380;0.098;2023-08-21T08:24:53;4.82;;;2.17;;
66421;SDS011;53228;51.380;0.098;2023-08-21T08:27:21;6.45;;;2.35;;
66421;SDS011;53228;51.380;0.098;2023-08-21T08:29:49;6.47;;;2.17;;
66421;SDS011;53228;51.380;0.098;2023-08-21T08:32:17;9.77;;;1.95;;
66421;SDS011;53228;51.380;0.098;2023-08-21T08:34:44;11.30;;;2.00;;
66421;SDS011;53228;51.380;0.098;2023-08-21T08:37:13;3.38;;;1.67;;
66421;SDS011;53228;51.380;0.098;2023-08-21T08:39:41;5.65;;;2.03;;
66421;SDS011;53228;51.380;0.098;2023-08-21T08:42:09;3.30;;;1.58;;
66421;SDS011;53228;51.380;0.098;2023-08-21T08:44:38;4.88;;;1.55;;
66421;SDS011;53228;51.380;0.098;2023-08-21T08:47:08;5.93;;;1.92;;
66421;SDS011;53228;51.380;0.098;2023-08-21T08:49:39;7.43;;;2.10;;
66421;SDS011;53228;51.380;0.098;2023-08-21T08:52:07;3.78;;;2.15;;
66421;SDS011;53228;51.380;0.098;2023-08-21T08:54:35;4.10;;;1.70;;
66421;SDS011;53228;51.380;0.098;2023-08-21T08:57:05;4.68;;;1.90;;
66421;SDS011;53228;51.380;0.098;2023-08-21T08:59:32;5.25;;;1.70;;
66421;SDS011;53228;51.380;0.098;2023-08-21T09:02:00;7.90;;;2.05;;
66421;SDS011;53228;51.380;0.098;2023-08-21T09:04:28;7.53;;;1.80;;
66421;SDS011;53228;51.380;0.098;2023-08-21T09:07:06;6.40;;;1.60;;
66421;SDS011;53228;51.380;0.098;2023-08-21T09:09:40;6.35;;;1.80;;
66421;SDS011;53228;51.380;0.098;2023-08-21T09:12:12;5.13;;;1.85;;
66421;SDS011;53228;51.380;0.098;2023-08-21T09:14:41;4.53;;;1.98;;
66421;SDS011;53228;51.380;0.098;2023-08-21T09:17:09;3.80;;;1.55;;
66421;SDS011;53228;51.380;0.098;2023-08-21T09:19:37;2.22;;;1.30;;
66421;SDS011;53228;51.380;0.098;2023-08-21T09:22:09;3.95;;;1.48;;
66421;SDS011;53228;51.380;0.098;2023-08-21T09:24:37;2.78;;;1.42;;
66421;SDS011;53228;51.380;0.098;2023-08-21T09:27:17;4.40;;;1.70;;
66421;SDS011;53228;51.380;0.098;2023-08-21T09:29:45;3.42;;;1.20;;
66421;SDS011;53228;51.380;0.098;2023-08-21T09:32:14;2.38;;;1.23;;
66421;SDS011;53228;51.380;0.098;2023-08-21T09:34:42;4.95;;;1.80;;
66421;SDS011;53228;51.380;0.098;2023-08-21T09:37:11;3.53;;;1.52;;
66421;SDS011;53228;51.380;0.098;2023-08-21T09:39:40;4.18;;;1.23;;
66421;SDS011;53228;51.380;0.098;2023-08-21T09:42:10;4.15;;;1.40;;
66421;SDS011;53228;51.380;0.098;2023-08-21T09:44:38;4.35;;;1.65;;
66421;SDS011;53228;51.380;0.098;2023-08-21T09:47:10;5.32;;;1.75;;
66421;SDS011;53228;51.380;0.098;2023-08-21T09:49:39;7.03;;;1.80;;
66421;SDS011;53228;51.380;0.098;2023-08-21T09:52:07;2.85;;;1.60;;
66421;SDS011;53228;51.380;0.098;2023-08-21T09:54:56;4.43;;;1.90;;
66421;SDS011;53228;51.380;0.098;2023-08-21T09:57:24;3.10;;;1.45;;
66421;SDS011;53228;51.380;0.098;2023-08-21T09:59:53;5.40;;;1.80;;
66421;SDS011;53228;51.380;0.098;2023-08-21T10:02:21;3.08;;;1.25;;
66421;SDS011;53228;51.380;0.098;2023-08-21T10:04:50;4.10;;;2.05;;
66421;SDS011;53228;51.380;0.098;2023-08-21T10:07:20;4.18;;;1.60;;
66421;SDS011;53228;51.380;0.098;2023-08-21T10:09:52;4.82;;;1.58;;
66421;SDS011;53228;51.380;0.098;2023-08-21T10:12:20;4.70;;;1.70;;
66421;SDS011;53228;51.380;0.098;2023-08-21T10:14:51;3.85;;;1.67;;
66421;SDS011;53228;51.380;0.098;2023-08-21T10:17:19;4.60;;;1.83;;
66421;SDS011;53228;51.380;0.098;2023-08-21T10:19:50;3.78;;;1.60;;
66421;SDS011;53228;51.380;0.098;2023-08-21T10:22:37;4.05;;;1.40;;
66421;SDS011;53228;51.380;0.098;2023-08-21T10:25:25;4.25;;;2.03;;
66421;SDS011;53228;51.380;0.098;2023-08-21T10:27:56;4.47;;;1.52;;
66421;SDS011;53228;51.380;0.098;2023-08-21T10:30:30;5.18;;;1.80;;
66421;SDS011;53228;51.380;0.098;2023-08-21T10:32:58;1.98;;;1.52;;
66421;SDS011;53228;51.380;0.098;2023-08-21T10:35:30;5.72;;;1.70;;
66421;SDS011;53228;51.380;0.098;2023-08-21T10:41:04;4.50;;;1.48;;
66421;SDS011;53228;51.380;0.098;2023-08-21T10:43:40;3.13;;;1.73;;
66421;SDS011;53228;51.380;0.098;2023-08-21T10:46:10;5.50;;;1.95;;
66421;SDS011;53228;51.380;0.098;2023-08-21T10:48:39;4.53;;;1.50;;
66421;SDS011;53228;51.380;0.098;2023-08-21T10:51:07;4.22;;;1.52;;
66421;SDS011;53228;51.380;0.098;2023-08-21T10:53:35;4.47;;;1.58;;
66421;SDS011;53228;51.380;0.098;2023-08-21T10:56:06;3.10;;;1.40;;
66421;SDS011;53228;51.380;0.098;2023-08-21T10:58:34;4.90;;;1.55;;
66421;SDS011;53228;51.380;0.098;2023-08-21T11:01:04;2.78;;;1.35;;
66421;SDS011;53228;51.380;0.098;2023-08-21T11:03:32;5.78;;;1.48;;
66421;SDS011;53228;51.380;0.098;2023-08-21T11:06:03;6.45;;;1.42;;
66421;SDS011;53228;51.380;0.098;2023-08-21T11:08:32;5.97;;;1.23;;
66421;SDS011;53228;51.380;0.098;2023-08-21T11:11:04;2.75;;;1.10;;
66421;SDS011;53228;51.380;0.098;2023-08-21T11:13:33;3.53;;;1.00;;
66421;SDS011;53228;51.380;0.098;2023-08-21T11:16:01;5.43;;;1.05;;
66421;SDS011;53228;51.380;0.098;2023-08-21T11:21:09;1.75;;;1.17;;
66421;SDS011;53228;51.380;0.098;2023-08-21T11:23:38;2.78;;;1.08;;
66421;SDS011;53228;51.380;0.098;2023-08-21T11:28:47;2.08;;;1.33;;
66421;SDS011;53228;51.380;0.098;2023-08-21T11:31:15;2.83;;;1.30;;
66421;SDS011;53228;51.380;0.098;2023-08-21T11:33:52;3.83;;;1.50;;
66421;SDS011;53228;51.380;0.098;2023-08-21T11:36:24;4.95;;;1.10;;
66421;SDS011;53228;51.380;0.098;2023-08-21T11:38:59;1.75;;;1.10;;
66421;SDS011;53228;51.380;0.098;2023-08-21T11:41:29;1.25;;;0.85;;
66421;SDS011;53228;51.380;0.098;2023-08-21T11:44:03;2.00;;;0.90;;
66421;SDS011;53228;51.380;0.098;2023-08-21T11:46:31;2.40;;;1.20;;
66421;SDS011;53228;51.380;0.098;2023-08-21T11:48:59;2.47;;;1.30;;
66421;SDS011;53228;51.380;0.098;2023-08-21T11:51:27;3.83;;;0.95;;
66421;SDS011;53228;51.380;0.098;2023-08-21T11:53:55;2.15;;;1.02;;
66421;SDS011;53228;51.380;0.098;2023-08-21T11:56:27;3.20;;;1.30;;
66421;SDS011;53228;51.380;0.098;2023-08-21T11:58:56;2.40;;;1.15;;
66421;SDS011;53228;51.380;0.098;2023-08-21T12:01:26;1.55;;;1.00;;
66421;SDS011;53228;51.380;0.098;2023-08-21T12:03:53;2.25;;;1.20;;
66421;SDS011;53228;51.380;0.098;2023-08-21T12:06:23;1.45;;;1.10;;
66421;SDS011;53228;51.380;0.098;2023-08-21T12:08:52;2.10;;;1.20;;
66421;SDS011;53228;51.380;0.098;2023-08-21T12:11:20;2.58;;;1.23;;
66421;SDS011;53228;51.380;0.098;2023-08-21T12:13:48;1.40;;;1.10;;
66421;SDS011;53228;51.380;0.098;2023-08-21T12:18:46;2.30;;;1.10;;
66421;SDS011;53228;51.380;0.098;2023-08-21T12:21:14;2.65;;;1.33;;
66421;SDS011;53228;51.380;0.098;2023-08-21T12:23:41;1.55;;;0.80;;
66421;SDS011;53228;51.380;0.098;2023-08-21T12:26:09;3.35;;;0.88;;
66421;SDS011;53228;51.380;0.098;2023-08-21T12:28:37;2.72;;;0.98;;
66421;SDS011;53228;51.380;0.098;2023-08-21T12:31:04;2.33;;;0.90;;
66421;SDS011;53228;51.380;0.098;2023-08-21T12:33:32;1.70;;;0.90;;
66421;SDS011;53228;51.380;0.098;2023-08-21T12:35:59;1.65;;;0.77;;
66421;SDS011;53228;51.380;0.098;2023-08-21T12:38:27;0.95;;;0.65;;
66421;SDS011;53228;51.380;0.098;2023-08-21T12:40:56;1.55;;;0.80;;
66421;SDS011;53228;51.380;0.098;2023-08-21T12:43:24;2.08;;;0.73;;
66421;SDS011;53228;51.380;0.098;2023-08-21T12:45:52;1.30;;;0.77;;
66421;SDS011;53228;51.380;0.098;2023-08-21T12:48:20;1.55;;;0.80;;
66421;SDS011;53228;51.380;0.098;2023-08-21T12:50:47;0.90;;;0.60;;
66421;SDS011;53228;51.380;0.098;2023-08-21T12:53:15;1.67;;;0.63;;
66421;SDS011;53228;51.380;0.098;2023-08-21T12:55:43;1.73;;;0.70;;
66421;SDS011;53228;51.380;0.098;2023-08-21T12:58:11;1.85;;;0.68;;
66421;SDS011;53228;51.380;0.098;2023-08-21T13:00:40;1.60;;;0.63;;
66421;SDS011;53228;51.380;0.098;2023-08-21T13:03:08;1.58;;;0.73;;
66421;SDS011;53228;51.380;0.098;2023-08-21T13:05:36;2.55;;;0.82;;
66421;SDS011;53228;51.380;0.098;2023-08-21T13:08:03;1.20;;;0.60;;
66421;SDS011;53228;51.380;0.098;2023-08-21T13:10:31;3.20;;;0.95;;
66421;SDS011;53228;51.380;0.098;2023-08-21T13:12:59;2.50;;;0.55;;
66421;SDS011;53228;51.380;0.098;2023-08-21T13:15:26;1.15;;;0.70;;
66421;SDS011;53228;51.380;0.098;2023-08-21T13:17:54;1.15;;;0.70;;
66421;SDS011;53228;51.380;0.098;2023-08-21T13:20:22;1.90;;;0.60;;
66421;SDS011;53228;51.380;0.098;2023-08-21T13:22:51;1.27;;;0.95;;
66421;SDS011;53228;51.380;0.098;2023-08-21T13:25:19;2.05;;;0.50;;
66421;SDS011;53228;51.380;0.098;2023-08-21T13:27:50;3.00;;;0.55;;
66421;SDS011;53228;51.380;0.098;2023-08-21T13:30:18;1.15;;;0.80;;
66421;SDS011;53228;51.380;0.098;2023-08-21T13:32:47;1.77;;;0.70;;
66421;SDS011;53228;51.380;0.098;2023-08-21T13:35:15;1.52;;;0.65;;
66421;SDS011;53228;51.380;0.098;2023-08-21T13:37:43;10.45;;;6.72;;
66421;SDS011;53228;51.380;0.098;2023-08-21T13:40:11;1.92;;;0.90;;
66421;SDS011;53228;51.380;0.098;2023-08-21T13:42:41;1.48;;;1.00;;
66421;SDS011;53228;51.380;0.098;2023-08-21T13:45:11;1.95;;;0.85;;
66421;SDS011;53228;51.380;0.098;2023-08-21T13:50:09;3.10;;;0.70;;
66421;SDS011;53228;51.380;0.098;2023-08-21T13:52:37;5.53;;;1.10;;
66421;SDS011;53228;51.380;0.098;2023-08-21T13:55:07;1.85;;;0.70;;
66421;SDS011;53228;51.380;0.098;2023-08-21T13:57:36;0.73;;;0.73;;
66421;SDS011;53228;51.380;0.098;2023-08-21T14:00:05;2.88;;;0.90;;
66421;SDS011;53228;51.380;0.098;2023-08-21T14:02:34;2.00;;;0.85;;
66421;SDS011;53228;51.380;0.098;2023-08-21T14:05:02;2.35;;;1.30;;
66421;SDS011;53228;51.380;0.098;2023-08-21T14:07:34;3.78;;;1.10;;
66421;SDS011;53228;51.380;0.098;2023-08-21T14:10:03;2.47;;;1.08;;
66421;SDS011;53228;51.380;0.098;2023-08-21T14:12:34;2.90;;;1.00;;
66421;SDS011;53228;51.380;0.098;2023-08-21T14:15:07;2.10;;;1.17;;
66421;SDS011;53228;51.380;0.098;2023-08-21T14:17:35;2.92;;;1.10;;
66421;SDS011;53228;51.380;0.098;2023-08-21T14:20:04;0.88;;;0.80;;
66421;SDS011;53228;51.380;0.098;2023-08-21T14:22:34;3.00;;;0.77;;
66421;SDS011;53228;51.380;0.098;2023-08-21T14:25:02;1.65;;;0.50;;
66421;SDS011;53228;51.380;0.098;2023-08-21T14:27:32;3.75;;;0.60;;
66421;SDS011;53228;51.380;0.098;2023-08-21T14:30:00;1.75;;;0.50;;
66421;SDS011;53228;51.380;0.098;2023-08-21T14:32:28;0.93;;;0.47;;
66421;SDS011;53228;51.380;0.098;2023-08-21T14:34:56;1.38;;;0.35;;
66421;SDS011;53228;51.380;0.098;2023-08-21T14:37:23;1.65;;;0.30;;
66421;SDS011;53228;51.380;0.098;2023-08-21T14:39:51;2.05;;;0.57;;
66421;SDS011;53228;51.380;0.098;2023-08-21T14:42:19;1.85;;;0.60;;
66421;SDS011;53228;51.380;0.098;2023-08-21T14:44:46;0.85;;;0.40;;
66421;SDS011;53228;51.380;0.098;2023-08-21T14:47:14;0.68;;;0.30;;
66421;SDS011;53228;51.380;0.098;2023-08-21T14:49:41;1.17;;;0.22;;
66421;SDS011;53228;51.380;0.098;2023-08-21T14:52:09;1.35;;;0.57;;
66421;SDS011;53228;51.380;0.098;2023-08-21T14:54:37;1.40;;;0.45;;
66421;SDS011;53228;51.380;0.098;2023-08-21T14:57:04;1.33;;;0.50;;
66421;SDS011;53228;51.380;0.098;2023-08-21T14:59:32;2.25;;;0.50;;
66421;SDS011;53228;51.380;0.098;2023-08-21T15:02:00;3.03;;;0.60;;
66421;SDS011;53228;51.380;0.098;2023-08-21T15:04:27;1.27;;;0.73;;
66421;SDS011;53228;51.380;0.098;2023-08-21T15:06:55;0.65;;;0.40;;
66421;SDS011;53228;51.380;0.098;2023-08-21T15:09:22;2.17;;;0.70;;
66421;SDS011;53228;51.380;0.098;2023-08-21T15:11:50;1.80;;;0.60;;
66421;SDS011;53228;51.380;0.098;2023-08-21T15:14:18;0.98;;;0.40;;
66421;SDS011;53228;51.380;0.098;2023-08-21T15:16:45;0.80;;;0.40;;